createdAt,value
2022-12-11T00:00:56.657Z,98450.09
2022-12-11T00:03:59.057Z,98442.47
2022-12-11T00:07:01.464Z,98434.97
2022-12-11T00:10:04.482Z,98415.44
2022-12-11T00:13:07.017Z,98413.44
2022-12-11T00:16:10.109Z,98429.91
2022-12-11T00:19:13.330Z,98411.31
2022-12-11T00:22:15.856Z,98426.69
2022-12-11T00:25:18.344Z,98416.38
2022-12-11T00:28:21.035Z,98401.22
2022-12-11T00:31:24.175Z,98393.03
2022-12-11T00:34:26.777Z,98391.88
2022-12-11T00:37:29.255Z,98353.47
2022-12-11T00:40:36.503Z,98368.78
2022-12-11T00:43:39.980Z,98332.59
2022-12-11T00:46:42.479Z,98353.91
2022-12-11T00:49:49.519Z,98342.41
2022-12-11T00:52:52.465Z,98329.81
2022-12-11T00:55:54.931Z,98335.34
2022-12-11T00:58:57.373Z,98346.91
2022-12-11T01:01:59.786Z,98337.09
2022-12-11T01:05:02.324Z,98301.66
2022-12-11T01:08:05.140Z,98318.81
2022-12-11T01:11:11.385Z,98303.50
2022-12-11T01:14:13.800Z,98276.88
2022-12-11T01:17:16.129Z,98269.06
2022-12-11T01:20:20.169Z,98268.59
2022-12-11T01:23:22.631Z,98268.72
2022-12-11T01:26:25.232Z,98251.34
2022-12-11T01:29:27.615Z,98302.13
2022-12-11T01:32:30.056Z,98292.19
2022-12-11T01:35:34.165Z,98319.31
2022-12-11T01:38:36.749Z,98297.28
2022-12-11T01:41:39.215Z,98263.78
2022-12-11T01:44:41.500Z,98261.44
2022-12-11T01:47:44.319Z,98232.88
2022-12-11T01:51:05.980Z,98272.03
2022-12-11T01:54:11.883Z,98250.63
2022-12-11T01:57:15.223Z,98253.97
2022-12-11T02:00:19.741Z,98225.31
2022-12-11T02:03:22.533Z,98225.16
2022-12-11T02:06:33.992Z,98213.38
2022-12-11T02:09:38.468Z,98202.44
2022-12-11T02:12:49.961Z,98221.09
2022-12-11T02:16:10.074Z,98225.44
2022-12-11T02:19:28.932Z,98222.38
2022-12-11T02:22:37.167Z,98222.34
2022-12-11T02:26:02.097Z,98230.91
2022-12-11T02:29:08.324Z,98223.91
2022-12-11T02:32:21.648Z,98196.63
2022-12-11T02:35:35.136Z,98205.84
2022-12-11T02:38:41.650Z,98207.53
2022-12-11T02:41:49.680Z,98215.16
2022-12-11T02:44:53.110Z,98233.56
2022-12-11T02:47:57.653Z,98219.47
2022-12-11T02:51:01.324Z,98204.44
2022-12-11T02:54:05.173Z,98220.03
2022-12-11T02:57:29.190Z,98209.22
2022-12-11T03:00:32.276Z,98207.53
2022-12-11T03:03:34.664Z,98201.44
2022-12-11T03:06:45.097Z,98180.06
2022-12-11T03:09:48.605Z,98173.22
2022-12-11T03:12:54.269Z,98188.00
2022-12-11T03:16:18.026Z,98158.50
2022-12-11T03:19:37.364Z,98153.41
2022-12-11T03:22:52.753Z,98145.78
2022-12-11T03:26:09.150Z,98147.44
2022-12-11T03:29:20.927Z,98154.63
2022-12-11T03:32:29.542Z,98191.72
2022-12-11T03:35:37.634Z,98141.50
2022-12-11T03:38:55.181Z,98113.25
2022-12-11T03:42:00.035Z,98135.22
2022-12-11T03:45:04.680Z,98135.28
2022-12-11T03:48:08.447Z,98144.75
2022-12-11T03:51:11.003Z,98140.00
2022-12-11T03:54:13.528Z,98118.84
2022-12-11T03:57:18.319Z,98103.13
2022-12-11T04:00:21.712Z,98101.34
2022-12-11T04:03:24.454Z,98115.41
2022-12-11T04:06:27.096Z,98098.09
2022-12-11T04:09:29.685Z,98075.06
2022-12-11T04:12:32.036Z,98078.19
2022-12-11T04:15:35.078Z,98085.63
2022-12-11T04:18:56.449Z,98087.69
2022-12-11T04:22:17.339Z,98078.50
2022-12-11T04:25:19.787Z,98076.66
2022-12-11T04:28:22.200Z,98101.50
2022-12-11T04:31:24.648Z,98082.03
2022-12-11T04:34:27.088Z,98119.13
2022-12-11T04:37:30.337Z,98102.66
2022-12-11T04:40:32.821Z,98105.31
2022-12-11T04:43:35.528Z,98157.59
2022-12-11T04:46:37.947Z,98164.97
2022-12-11T04:49:40.408Z,98157.19
2022-12-11T04:52:43.626Z,98117.66
2022-12-11T04:55:45.987Z,98114.25
2022-12-11T04:58:48.725Z,98103.19
2022-12-11T05:01:51.421Z,98112.28
2022-12-11T05:04:53.886Z,98137.28
2022-12-11T05:07:56.353Z,98143.88
2022-12-11T05:11:00.748Z,98125.66
2022-12-11T05:14:03.325Z,98111.75
2022-12-11T05:17:05.734Z,98120.69
2022-12-11T05:20:09.592Z,98151.03
2022-12-11T05:23:12.021Z,98154.97
2022-12-11T05:26:19.687Z,98175.09
2022-12-11T05:29:22.192Z,98176.59
2022-12-11T05:32:24.677Z,98168.50
2022-12-11T05:35:27.093Z,98203.28
2022-12-11T05:38:29.558Z,98169.88
2022-12-11T05:41:32.877Z,98187.78
2022-12-11T05:44:35.313Z,98190.72
2022-12-11T05:47:37.687Z,98163.63
2022-12-11T05:50:40.144Z,98188.25
2022-12-11T05:53:44.342Z,98217.69
2022-12-11T05:56:50.153Z,98219.09
2022-12-11T05:59:52.650Z,98230.88
2022-12-11T06:02:55.157Z,98246.97
2022-12-11T06:05:57.597Z,98225.22
2022-12-11T06:09:00.613Z,98255.56
2022-12-11T06:12:03.261Z,98245.47
2022-12-11T06:15:06.120Z,98224.00
2022-12-11T06:18:08.842Z,98260.47
2022-12-11T06:21:13.901Z,98255.41
2022-12-11T06:24:16.399Z,98273.94
2022-12-11T06:27:19.492Z,98264.44
2022-12-11T06:30:22.257Z,98265.06
2022-12-11T06:33:40.903Z,98249.00
2022-12-11T06:36:43.291Z,98281.94
2022-12-11T06:39:45.727Z,98268.75
2022-12-11T06:42:48.330Z,98272.13
2022-12-11T06:45:51.271Z,98272.31
2022-12-11T06:48:53.704Z,98289.00
2022-12-11T06:51:56.155Z,98290.38
2022-12-11T06:54:58.821Z,98289.78
2022-12-11T06:58:01.277Z,98308.47
2022-12-11T07:01:05.836Z,98321.34
2022-12-11T07:04:09.342Z,98333.59
2022-12-11T07:07:11.998Z,98316.44
2022-12-11T07:10:14.865Z,98353.84
2022-12-11T07:13:17.291Z,98319.19
2022-12-11T07:16:19.945Z,98374.03
2022-12-11T07:19:22.451Z,98410.06
2022-12-11T07:22:25.016Z,98399.97
2022-12-11T07:25:27.379Z,98397.34
2022-12-11T07:28:29.953Z,98401.63
2022-12-11T07:31:32.534Z,98417.44
2022-12-11T07:34:35.000Z,98409.75
2022-12-11T07:37:40.689Z,98433.53
2022-12-11T07:40:43.092Z,98467.53
2022-12-11T07:43:45.688Z,98504.19
2022-12-11T07:46:48.106Z,98517.50
2022-12-11T07:49:50.839Z,98499.75
2022-12-11T07:52:53.533Z,98516.16
2022-12-11T07:55:55.908Z,98514.59
2022-12-11T07:59:03.055Z,98530.56
2022-12-11T08:02:05.702Z,98519.66
2022-12-11T08:05:08.937Z,98540.06
2022-12-11T08:08:11.514Z,98551.09
2022-12-11T08:11:15.280Z,98574.13
2022-12-11T08:14:18.465Z,98575.06
2022-12-11T08:17:25.887Z,98573.97
2022-12-11T08:20:31.706Z,98586.56
2022-12-11T08:23:34.270Z,98572.91
2022-12-11T08:26:36.887Z,98574.91
2022-12-11T08:29:39.304Z,98552.66
2022-12-11T08:32:41.979Z,98580.41
2022-12-11T08:35:46.403Z,98607.44
2022-12-11T08:38:49.806Z,98608.38
2022-12-11T08:41:52.437Z,98623.25
2022-12-11T08:44:54.921Z,98621.66
2022-12-11T08:47:59.209Z,98634.31
2022-12-11T08:51:03.018Z,98645.84
2022-12-11T08:54:05.519Z,98648.69
2022-12-11T08:57:07.915Z,98676.66
2022-12-11T09:00:13.020Z,98686.31
2022-12-11T09:03:15.581Z,98709.22
2022-12-11T09:06:20.886Z,98720.00
2022-12-11T09:09:23.495Z,98708.44
2022-12-11T09:12:27.110Z,98727.22
2022-12-11T09:15:29.636Z,98727.22
2022-12-11T09:18:32.164Z,98724.78
2022-12-11T09:21:34.552Z,98739.56
2022-12-11T09:24:37.827Z,98728.88
2022-12-11T09:27:40.317Z,98758.63
2022-12-11T09:30:42.845Z,98737.69
2022-12-11T09:33:46.863Z,98738.50
2022-12-11T09:36:49.791Z,98762.47
2022-12-11T09:39:52.189Z,98750.19
2022-12-11T09:43:03.471Z,98755.09
2022-12-11T09:46:11.241Z,98762.91
2022-12-11T09:49:32.100Z,98781.09
2022-12-11T09:52:44.513Z,98789.97
2022-12-11T09:56:10.903Z,98795.81
2022-12-11T09:59:26.873Z,98797.50
2022-12-11T10:02:45.318Z,98796.28
2022-12-11T10:06:16.757Z,98808.75
2022-12-11T10:09:37.227Z,98806.31
2022-12-11T10:13:01.025Z,98797.97
2022-12-11T10:16:29.833Z,98775.59
2022-12-11T10:19:32.810Z,98800.75
2022-12-11T10:22:35.548Z,98816.47
2022-12-11T10:25:43.020Z,98827.66
2022-12-11T10:28:45.416Z,98840.16
2022-12-11T10:31:52.664Z,98812.91
2022-12-11T10:35:00.592Z,98808.03
2022-12-11T10:38:11.655Z,98817.72
2022-12-11T10:41:35.107Z,98835.91
2022-12-11T10:44:37.684Z,98827.47
2022-12-11T10:47:40.084Z,98843.31
2022-12-11T10:50:44.422Z,98850.53
2022-12-11T10:53:54.976Z,98854.53
2022-12-11T10:56:57.862Z,98824.69
2022-12-11T11:00:00.906Z,98850.66
2022-12-11T11:03:06.037Z,98867.59
2022-12-11T11:06:18.371Z,98862.03
2022-12-11T11:09:31.554Z,98874.03
2022-12-11T11:12:49.662Z,98874.66
2022-12-11T11:16:03.598Z,98893.59
2022-12-11T11:19:06.572Z,98896.81
2022-12-11T11:22:17.800Z,98888.50
2022-12-11T11:25:25.175Z,98889.13
2022-12-11T11:28:34.459Z,98894.19
2022-12-11T11:31:37.061Z,98894.84
2022-12-11T11:34:39.523Z,98874.81
2022-12-11T11:37:45.829Z,98890.22
2022-12-11T11:40:58.134Z,98893.72
2022-12-11T11:44:07.113Z,98868.31
2022-12-11T11:47:16.442Z,98883.25
2022-12-11T11:50:23.029Z,98907.56
2022-12-11T11:53:37.292Z,98904.63
2022-12-11T11:56:39.678Z,98910.97
2022-12-11T11:59:47.272Z,98909.84
2022-12-11T12:02:54.398Z,98924.91
2022-12-11T12:06:12.064Z,98912.00
2022-12-11T12:09:22.852Z,98926.63
2022-12-11T12:12:37.542Z,98932.63
2022-12-11T12:15:55.556Z,98940.41
2022-12-11T12:18:58.044Z,98957.38
2022-12-11T12:22:09.056Z,98948.59
2022-12-11T12:25:33.237Z,98945.53
2022-12-11T12:28:40.634Z,98945.09
2022-12-11T12:31:49.194Z,98942.75
2022-12-11T12:35:08.205Z,98934.59
2022-12-11T12:38:24.491Z,98953.22
2022-12-11T12:41:51.080Z,98938.91
2022-12-11T12:45:01.380Z,98932.63
2022-12-11T12:48:03.916Z,98944.78
2022-12-11T12:51:06.773Z,98951.97
2022-12-11T12:54:14.244Z,98943.19
2022-12-11T12:57:16.776Z,98941.63
2022-12-11T13:00:38.616Z,98963.97
2022-12-11T13:03:57.799Z,98958.56
2022-12-11T13:07:11.799Z,98951.44
2022-12-11T13:10:24.832Z,98984.91
2022-12-11T13:14:04.174Z,98990.25
2022-12-11T13:17:20.562Z,99006.69
2022-12-11T13:20:28.373Z,99024.69
2022-12-11T13:23:32.783Z,99039.31
2022-12-11T13:26:35.313Z,99004.19
2022-12-11T13:29:40.711Z,99021.56
2022-12-11T13:32:52.295Z,99028.19
2022-12-11T13:36:16.710Z,99026.81
2022-12-11T13:39:24.447Z,99018.34
2022-12-11T13:42:51.049Z,99030.63
2022-12-11T13:45:56.287Z,99022.56
2022-12-11T13:49:03.494Z,99002.22
2022-12-11T13:52:07.130Z,99030.59
2022-12-11T13:55:25.487Z,99033.16
2022-12-11T13:58:28.953Z,99026.38
2022-12-11T14:01:33.734Z,99029.63
2022-12-11T14:04:37.829Z,99019.59
2022-12-11T14:07:48.082Z,99031.59
2022-12-11T14:10:52.711Z,99023.59
2022-12-11T14:13:59.963Z,99044.53
2022-12-11T14:17:02.623Z,99049.09
2022-12-11T14:20:07.446Z,99056.06
2022-12-11T14:23:23.452Z,99060.03
2022-12-11T14:26:27.025Z,99036.19
2022-12-11T14:29:32.363Z,99052.44
2022-12-11T14:32:37.687Z,99063.53
2022-12-11T14:35:42.089Z,99058.44
2022-12-11T14:38:49.895Z,99066.28
2022-12-11T14:42:18.652Z,99080.75
2022-12-11T14:45:25.254Z,99075.94
2022-12-11T14:48:31.848Z,99082.50
2022-12-11T14:51:39.869Z,99072.97
2022-12-11T14:54:45.847Z,99081.75
2022-12-11T14:57:50.612Z,99078.00
2022-12-11T15:01:04.102Z,99086.19
2022-12-11T15:04:15.719Z,99094.81
2022-12-11T15:07:22.074Z,99099.34
2022-12-11T15:10:31.390Z,99105.16
2022-12-11T15:13:36.762Z,99113.88
2022-12-11T15:16:41.608Z,99114.75
2022-12-11T15:19:48.949Z,99125.84
2022-12-11T15:22:52.257Z,99128.78
2022-12-11T15:25:57.151Z,99119.88
2022-12-11T15:29:04.831Z,99121.34
2022-12-11T15:32:10.003Z,99135.81
2022-12-11T15:35:26.508Z,99136.53
2022-12-11T15:38:40.855Z,99137.28
2022-12-11T15:41:43.305Z,99124.53
2022-12-11T15:44:46.029Z,99135.94
2022-12-11T15:47:50.299Z,99138.94
2022-12-11T15:50:52.843Z,99157.41
2022-12-11T15:53:55.429Z,99136.81
2022-12-11T15:56:59.242Z,99149.00
2022-12-11T16:00:02.048Z,99158.09
2022-12-11T16:03:11.523Z,99157.88
2022-12-11T16:06:14.195Z,99159.13
2022-12-11T16:09:16.671Z,99172.09
2022-12-11T16:12:19.727Z,99150.38
2022-12-11T16:15:24.161Z,99165.91
2022-12-11T16:18:27.160Z,99166.50
2022-12-11T16:21:29.645Z,99157.50
2022-12-11T16:24:33.150Z,99179.06
2022-12-11T16:27:35.832Z,99188.44
2022-12-11T16:30:39.283Z,99190.94
2022-12-11T16:33:41.808Z,99185.03
2022-12-11T16:36:44.255Z,99173.66
2022-12-11T16:39:47.021Z,99189.41
2022-12-11T16:42:49.977Z,99177.31
2022-12-11T16:45:55.982Z,99168.91
2022-12-11T16:48:58.644Z,99160.09
2022-12-11T16:52:01.214Z,99179.75
2022-12-11T16:55:04.226Z,99174.91
2022-12-11T16:58:07.344Z,99175.38
2022-12-11T17:01:12.816Z,99168.25
2022-12-11T17:04:15.234Z,99164.34
2022-12-11T17:07:19.718Z,99160.69
2022-12-11T17:10:22.240Z,99176.34
2022-12-11T17:13:24.764Z,99182.44
2022-12-11T17:16:30.347Z,99160.31
2022-12-11T17:19:33.291Z,99174.13
2022-12-11T17:22:36.148Z,99179.25
2022-12-11T17:25:42.979Z,99195.31
2022-12-11T17:28:45.772Z,99182.94
2022-12-11T17:31:48.838Z,99200.03
2022-12-11T17:34:51.571Z,99180.25
2022-12-11T17:37:53.944Z,99197.13
2022-12-11T17:40:57.064Z,99198.78
2022-12-11T17:43:59.827Z,99190.19
2022-12-11T17:47:06.170Z,99204.19
2022-12-11T17:50:11.792Z,99204.66
2022-12-11T17:53:15.636Z,99186.41
2022-12-11T17:56:18.428Z,99190.75
2022-12-11T17:59:20.978Z,99206.31
2022-12-11T18:02:23.908Z,99204.47
2022-12-11T18:05:26.618Z,99207.47
2022-12-11T18:08:30.197Z,99204.09
2022-12-11T18:11:34.321Z,99186.69
2022-12-11T18:14:37.551Z,99184.66
2022-12-11T18:17:41.586Z,99188.22
2022-12-11T18:20:48.099Z,99193.44
2022-12-11T18:23:50.915Z,99184.09
2022-12-11T18:26:53.286Z,99194.63
2022-12-11T18:29:56.210Z,99197.81
2022-12-11T18:32:59.413Z,99201.19
2022-12-11T18:36:02.294Z,99204.94
2022-12-11T18:39:04.970Z,99193.66
2022-12-11T18:42:32.402Z,99205.34
2022-12-11T18:45:30.914Z,99209.50
2022-12-11T18:48:33.720Z,99213.66
2022-12-11T18:51:37.325Z,99202.94
2022-12-11T18:54:40.895Z,99235.88
2022-12-11T18:57:43.379Z,99228.34
2022-12-11T19:00:46.206Z,99227.88
2022-12-11T19:03:49.715Z,99226.91
2022-12-11T19:06:52.448Z,99251.38
2022-12-11T19:09:55.130Z,99252.31
2022-12-11T19:12:57.876Z,99248.66
2022-12-11T19:16:01.840Z,99246.91
2022-12-11T19:19:10.001Z,99241.41
2022-12-11T19:22:13.028Z,99249.91
2022-12-11T19:25:16.061Z,99259.88
2022-12-11T19:28:19.086Z,99252.53
2022-12-11T19:31:22.831Z,99267.31
2022-12-11T19:34:25.924Z,99263.75
2022-12-11T19:37:28.590Z,99262.28
2022-12-11T19:40:31.589Z,99248.06
2022-12-11T19:43:34.974Z,99264.22
2022-12-11T19:46:38.791Z,99265.66
2022-12-11T19:49:41.557Z,99252.78
2022-12-11T19:52:46.397Z,99269.53
2022-12-11T19:55:53.433Z,99268.38
2022-12-11T19:58:56.913Z,99243.63
2022-12-11T20:01:59.983Z,99261.03
2022-12-11T20:05:02.465Z,99264.13
2022-12-11T20:08:42.400Z,99256.47
2022-12-11T20:11:28.455Z,99274.56
2022-12-11T20:14:31.121Z,99267.09
2022-12-11T20:17:33.616Z,99272.56
2022-12-11T20:20:37.073Z,99268.78
2022-12-11T20:23:41.021Z,99265.09
2022-12-11T20:26:43.888Z,99285.41
2022-12-11T20:29:46.565Z,99268.69
2022-12-11T20:32:50.952Z,99281.81
2022-12-11T20:35:53.579Z,99286.34
2022-12-11T20:38:56.389Z,99292.28
2022-12-11T20:41:59.576Z,99279.41
2022-12-11T20:45:02.188Z,99289.47
2022-12-11T20:48:05.736Z,99286.16
2022-12-11T20:51:12.120Z,99284.44
2022-12-11T20:54:14.885Z,99306.28
2022-12-11T20:57:17.365Z,99293.88
2022-12-11T21:00:20.011Z,99277.66
2022-12-11T21:03:22.528Z,99289.16
2022-12-11T21:06:31.292Z,99273.59
2022-12-11T21:09:34.525Z,99288.88
2022-12-11T21:12:38.199Z,99296.19
2022-12-11T21:15:41.092Z,99299.47
2022-12-11T21:18:44.327Z,99296.19
2022-12-11T21:21:47.297Z,99292.63
2022-12-11T21:24:49.920Z,99286.63
2022-12-11T21:27:52.296Z,99287.28
2022-12-11T21:31:02.213Z,99292.50
2022-12-11T21:34:05.598Z,99307.69
2022-12-11T21:37:08.136Z,99308.19
2022-12-11T21:40:11.055Z,99296.06
2022-12-11T21:43:13.676Z,99299.94
2022-12-11T21:46:18.038Z,99307.28
2022-12-11T21:49:22.498Z,99311.59
2022-12-11T21:52:24.928Z,99303.25
2022-12-11T21:55:27.921Z,99324.06
2022-12-11T21:58:30.574Z,99310.13
2022-12-11T22:01:38.756Z,99312.34
2022-12-11T22:04:42.051Z,99330.94
2022-12-11T22:07:44.448Z,99310.72
2022-12-11T22:10:46.953Z,99345.47
2022-12-11T22:13:49.553Z,99321.47
2022-12-11T22:16:52.021Z,99345.59
2022-12-11T22:19:54.587Z,99335.81
2022-12-11T22:22:57.025Z,99343.00
2022-12-11T22:25:59.565Z,99343.09
2022-12-11T22:29:02.473Z,99341.00
2022-12-11T22:32:05.054Z,99350.19
2022-12-11T22:35:07.792Z,99341.66
2022-12-11T22:38:10.381Z,99340.06
2022-12-11T22:41:22.145Z,99350.97
2022-12-11T22:44:25.072Z,99351.53
2022-12-11T22:47:27.579Z,99344.34
2022-12-11T22:50:30.471Z,99364.56
2022-12-11T22:53:33.101Z,99342.91
2022-12-11T22:56:35.541Z,99350.16
2022-12-11T22:59:38.021Z,99348.91
2022-12-11T23:02:40.840Z,99364.34
2022-12-11T23:05:43.485Z,99350.09
2022-12-11T23:08:46.113Z,99377.38
2022-12-11T23:11:48.683Z,99349.13
2022-12-11T23:14:51.304Z,99359.91
2022-12-11T23:17:53.813Z,99368.06
2022-12-11T23:20:56.579Z,99337.59
2022-12-11T23:23:59.711Z,99380.81
2022-12-11T23:27:02.201Z,99362.06
2022-12-11T23:30:05.133Z,99368.75
2022-12-11T23:33:08.404Z,99373.94
2022-12-11T23:36:11.310Z,99368.53
2022-12-11T23:39:13.913Z,99380.09
2022-12-11T23:42:16.924Z,99384.06
2022-12-11T23:45:21.189Z,99371.88
2022-12-11T23:48:24.187Z,99381.44
2022-12-11T23:51:26.843Z,99362.63
2022-12-11T23:54:29.831Z,99367.59
2022-12-11T23:57:32.421Z,99371.88
